^^
TXWeather Station Historical Data
Daily Summary for September 20, 2021 Units:  Both    English   Metric
Daily Weekly Monthly Yearly Custom
  High: Low: Average:
Temperature: 95.0 °F /  35 °C 76.0 °F /  24.4 °C 84.3 °F /  29.1 °C
Dew Point: 78.0 °F /  25.6 °C 73.0 °F /  22.8 °C 75.4 °F /  24.1 °C
Humidity: 91% 53% 76%
Wind Speed: 12mph /  19.3km/h - 5mph /  8km/h
Wind Gust: 12mph /  19.3km/h - -
Wind- - SSE
Pressure: 30.0 in /  1015.8 hPa 29.9 in /  1012.4 hPa -
Precipitation: 0.000 in /  0 mm    
Historical Graphs
 
 
Tabular Data for September 20, 2021
Time Temperature Dew Point Pressure Wind Wind Speed Wind Gust Humidity Rainfall Rate (Hourly) solar
00:04 79.0 °F /  26.1 °C 74.0 °F /  23.3 °C 29.9in /  1012.4hPa SE 2mph /  3.2km/h 5mph /  8km/h 83% 0.000in /  0mm 0.00 W/m2
00:09 79.0 °F /  26.1 °C 74.0 °F /  23.3 °C 29.9in /  1012.4hPa SSE 1mph /  1.6km/h 3mph /  4.8km/h 83% 0.000in /  0mm 0.00 W/m2
00:14 79.0 °F /  26.1 °C 74.0 °F /  23.3 °C 29.9in /  1012.4hPa SSE 3mph /  4.8km/h 3mph /  4.8km/h 83% 0.000in /  0mm 0.00 W/m2
00:19 79.0 °F /  26.1 °C 74.0 °F /  23.3 °C 29.9in /  1012.4hPa SSE 3mph /  4.8km/h 3mph /  4.8km/h 84% 0.000in /  0mm 0.00 W/m2
00:24 79.0 °F /  26.1 °C 74.0 °F /  23.3 °C 29.9in /  1012.4hPa SSE 4mph /  6.4km/h 5mph /  8km/h 84% 0.000in /  0mm 0.00 W/m2
00:29 79.0 °F /  26.1 °C 74.0 °F /  23.3 °C 29.9in /  1012.4hPa SSE 4mph /  6.4km/h 4mph /  6.4km/h 84% 0.000in /  0mm 0.00 W/m2
00:34 79.0 °F /  26.1 °C 74.0 °F /  23.3 °C 29.9in /  1012.4hPa SSE 4mph /  6.4km/h 5mph /  8km/h 84% 0.000in /  0mm 0.00 W/m2
00:39 79.0 °F /  26.1 °C 74.0 °F /  23.3 °C 29.9in /  1012.4hPa SSE 4mph /  6.4km/h 4mph /  6.4km/h 84% 0.000in /  0mm 0.00 W/m2
00:44 79.0 °F /  26.1 °C 74.0 °F /  23.3 °C 29.9in /  1012.4hPa SSE 5mph /  8km/h 5mph /  8km/h 85% 0.000in /  0mm 0.00 W/m2
00:49 79.0 °F /  26.1 °C 74.0 °F /  23.3 °C 29.9in /  1012.4hPa SSE 5mph /  8km/h 5mph /  8km/h 85% 0.000in /  0mm 0.00 W/m2
00:54 79.0 °F /  26.1 °C 74.0 °F /  23.3 °C 29.9in /  1012.4hPa SSE 4mph /  6.4km/h 4mph /  6.4km/h 85% 0.000in /  0mm 0.00 W/m2
00:59 79.0 °F /  26.1 °C 74.0 °F /  23.3 °C 29.9in /  1012.4hPa SSE 4mph /  6.4km/h 5mph /  8km/h 85% 0.000in /  0mm 0.00 W/m2
01:04 79.0 °F /  26.1 °C 74.0 °F /  23.3 °C 29.9in /  1012.4hPa SSE 2mph /  3.2km/h 2mph /  3.2km/h 85% 0.000in /  0mm 0.00 W/m2
01:09 78.0 °F /  25.6 °C 74.0 °F /  23.3 °C 29.9in /  1012.4hPa SSE 3mph /  4.8km/h 3mph /  4.8km/h 85% 0.000in /  0mm 0.00 W/m2
01:14 78.0 °F /  25.6 °C 74.0 °F /  23.3 °C 29.9in /  1012.4hPa SE 4mph /  6.4km/h 4mph /  6.4km/h 86% 0.000in /  0mm 0.00 W/m2
01:19 78.0 °F /  25.6 °C 74.0 °F /  23.3 °C 29.9in /  1012.4hPa SE 1mph /  1.6km/h 3mph /  4.8km/h 86% 0.000in /  0mm 0.00 W/m2
01:24 78.0 °F /  25.6 °C 74.0 °F /  23.3 °C 29.9in /  1012.4hPa SE 2mph /  3.2km/h 3mph /  4.8km/h 86% 0.000in /  0mm 0.00 W/m2
01:29 78.0 °F /  25.6 °C 74.0 °F /  23.3 °C 29.9in /  1012.4hPa SE 3mph /  4.8km/h 3mph /  4.8km/h 86% 0.000in /  0mm 0.00 W/m2
01:34 78.0 °F /  25.6 °C 74.0 °F /  23.3 °C 29.9in /  1012.4hPa SE 2mph /  3.2km/h 2mph /  3.2km/h 86% 0.000in /  0mm 0.00 W/m2
01:39 78.0 °F /  25.6 °C 74.0 °F /  23.3 °C 29.9in /  1012.4hPa SE 3mph /  4.8km/h 4mph /  6.4km/h 86% 0.000in /  0mm 0.00 W/m2
01:44 78.0 °F /  25.6 °C 74.0 °F /  23.3 °C 29.9in /  1012.4hPa SE 3mph /  4.8km/h 3mph /  4.8km/h 86% 0.000in /  0mm 0.00 W/m2
01:49 78.0 °F /  25.6 °C 74.0 °F /  23.3 °C 29.9in /  1012.4hPa SE 3mph /  4.8km/h 3mph /  4.8km/h 86% 0.000in /  0mm 0.00 W/m2
01:54 78.0 °F /  25.6 °C 74.0 °F /  23.3 °C 29.9in /  1012.4hPa SSE 4mph /  6.4km/h 5mph /  8km/h 86% 0.000in /  0mm 0.00 W/m2
01:59 78.0 °F /  25.6 °C 74.0 °F /  23.3 °C 29.9in /  1012.4hPa South 5mph /  8km/h 5mph /  8km/h 86% 0.000in /  0mm 0.00 W/m2
02:04 78.0 °F /  25.6 °C 73.0 °F /  22.8 °C 29.9in /  1012.4hPa South 2mph /  3.2km/h 4mph /  6.4km/h 86% 0.000in /  0mm 0.00 W/m2
02:09 78.0 °F /  25.6 °C 74.0 °F /  23.3 °C 29.9in /  1012.4hPa South 1mph /  1.6km/h 3mph /  4.8km/h 87% 0.000in /  0mm 0.00 W/m2
02:14 78.0 °F /  25.6 °C 74.0 °F /  23.3 °C 29.9in /  1012.4hPa South 2mph /  3.2km/h 3mph /  4.8km/h 87% 0.000in /  0mm 0.00 W/m2
02:19 78.0 °F /  25.6 °C 74.0 °F /  23.3 °C 29.9in /  1012.4hPa South 2mph /  3.2km/h 4mph /  6.4km/h 87% 0.000in /  0mm 0.00 W/m2
02:24 78.0 °F /  25.6 °C 74.0 °F /  23.3 °C 29.9in /  1012.4hPa South 1mph /  1.6km/h 2mph /  3.2km/h 87% 0.000in /  0mm 0.00 W/m2
02:29 78.0 °F /  25.6 °C 73.0 °F /  22.8 °C 29.9in /  1012.4hPa South 2mph /  3.2km/h 4mph /  6.4km/h 87% 0.000in /  0mm 0.00 W/m2
02:34 77.0 °F /  25 °C 73.0 °F /  22.8 °C 29.9in /  1012.4hPa South 2mph /  3.2km/h 2mph /  3.2km/h 87% 0.000in /  0mm 0.00 W/m2
02:39 77.0 °F /  25 °C 73.0 °F /  22.8 °C 29.9in /  1012.4hPa South 2mph /  3.2km/h 2mph /  3.2km/h 87% 0.000in /  0mm 0.00 W/m2
02:44 77.0 °F /  25 °C 73.0 °F /  22.8 °C 29.9in /  1012.4hPa South 4mph /  6.4km/h 4mph /  6.4km/h 87% 0.000in /  0mm 0.00 W/m2
02:49 78.0 °F /  25.6 °C 73.0 °F /  22.8 °C 29.9in /  1012.4hPa South 4mph /  6.4km/h 4mph /  6.4km/h 87% 0.000in /  0mm 0.00 W/m2
02:54 78.0 °F /  25.6 °C 73.0 °F /  22.8 °C 29.9in /  1012.4hPa South 4mph /  6.4km/h 4mph /  6.4km/h 87% 0.000in /  0mm 0.00 W/m2
02:59 78.0 °F /  25.6 °C 73.0 °F /  22.8 °C 29.9in /  1012.4hPa South 5mph /  8km/h 5mph /  8km/h 87% 0.000in /  0mm 0.00 W/m2
03:04 78.0 °F /  25.6 °C 73.0 °F /  22.8 °C 29.9in /  1012.4hPa South 2mph /  3.2km/h 3mph /  4.8km/h 87% 0.000in /  0mm 0.00 W/m2
03:09 78.0 °F /  25.6 °C 73.0 °F /  22.8 °C 29.9in /  1012.4hPa South 2mph /  3.2km/h 3mph /  4.8km/h 87% 0.000in /  0mm 0.00 W/m2
03:14 78.0 °F /  25.6 °C 73.0 °F /  22.8 °C 29.9in /  1012.4hPa South 2mph /  3.2km/h 3mph /  4.8km/h 87% 0.000in /  0mm 0.00 W/m2
03:19 77.0 °F /  25 °C 73.0 °F /  22.8 °C 29.9in /  1012.4hPa South 3mph /  4.8km/h 3mph /  4.8km/h 87% 0.000in /  0mm 0.00 W/m2
03:24 77.0 °F /  25 °C 74.0 °F /  23.3 °C 29.9in /  1012.4hPa South 1mph /  1.6km/h 2mph /  3.2km/h 88% 0.000in /  0mm 0.00 W/m2
03:29 77.0 °F /  25 °C 73.0 °F /  22.8 °C 29.9in /  1012.4hPa South 2mph /  3.2km/h 2mph /  3.2km/h 88% 0.000in /  0mm 0.00 W/m2
03:34 77.0 °F /  25 °C 73.0 °F /  22.8 °C 29.9in /  1012.4hPa South 2mph /  3.2km/h 2mph /  3.2km/h 88% 0.000in /  0mm 0.00 W/m2
03:39 77.0 °F /  25 °C 73.0 °F /  22.8 °C 29.9in /  1012.4hPa South 1mph /  1.6km/h 1mph /  1.6km/h 88% 0.000in /  0mm 0.00 W/m2
03:44 77.0 °F /  25 °C 73.0 °F /  22.8 °C 29.9in /  1012.4hPa South 1mph /  1.6km/h 1mph /  1.6km/h 89% 0.000in /  0mm 0.00 W/m2
03:49 77.0 °F /  25 °C 73.0 °F /  22.8 °C 29.9in /  1012.4hPa South 2mph /  3.2km/h 2mph /  3.2km/h 89% 0.000in /  0mm 0.00 W/m2
03:54 77.0 °F /  25 °C 73.0 °F /  22.8 °C 29.9in /  1012.4hPa South 1mph /  1.6km/h 2mph /  3.2km/h 89% 0.000in /  0mm 0.00 W/m2
03:59 77.0 °F /  25 °C 73.0 °F /  22.8 °C 29.9in /  1012.4hPa South 2mph /  3.2km/h 2mph /  3.2km/h 89% 0.000in /  0mm 0.00 W/m2
04:04 77.0 °F /  25 °C 73.0 °F /  22.8 °C 29.9in /  1012.4hPa South 2mph /  3.2km/h 2mph /  3.2km/h 89% 0.000in /  0mm 0.00 W/m2
04:09 77.0 °F /  25 °C 73.0 °F /  22.8 °C 29.9in /  1012.4hPa South 1mph /  1.6km/h 2mph /  3.2km/h 89% 0.000in /  0mm 0.00 W/m2
04:14 77.0 °F /  25 °C 73.0 °F /  22.8 °C 29.9in /  1012.4hPa South 3mph /  4.8km/h 3mph /  4.8km/h 89% 0.000in /  0mm 0.00 W/m2
04:19 77.0 °F /  25 °C 73.0 °F /  22.8 °C 29.9in /  1012.4hPa SSE 4mph /  6.4km/h 4mph /  6.4km/h 89% 0.000in /  0mm 0.00 W/m2
04:24 77.0 °F /  25 °C 73.0 °F /  22.8 °C 29.9in /  1012.4hPa SSE 2mph /  3.2km/h 2mph /  3.2km/h 89% 0.000in /  0mm 0.00 W/m2
04:29 77.0 °F /  25 °C 73.0 °F /  22.8 °C 29.9in /  1012.4hPa SSE 1mph /  1.6km/h 3mph /  4.8km/h 89% 0.000in /  0mm 0.00 W/m2
04:34 77.0 °F /  25 °C 73.0 °F /  22.8 °C 29.9in /  1012.4hPa SSE 1mph /  1.6km/h 1mph /  1.6km/h 89% 0.000in /  0mm 0.00 W/m2
04:39 77.0 °F /  25 °C 73.0 °F /  22.8 °C 29.9in /  1012.4hPa SSE 2mph /  3.2km/h 2mph /  3.2km/h 90% 0.000in /  0mm 0.00 W/m2
04:44 77.0 °F /  25 °C 73.0 °F /  22.8 °C 29.9in /  1012.4hPa SSE 1mph /  1.6km/h 2mph /  3.2km/h 90% 0.000in /  0mm 0.00 W/m2
04:49 77.0 °F /  25 °C 73.0 °F /  22.8 °C 29.9in /  1012.4hPa SSE 2mph /  3.2km/h 2mph /  3.2km/h 90% 0.000in /  0mm 0.00 W/m2
04:54 77.0 °F /  25 °C 73.0 °F /  22.8 °C 29.9in /  1012.4hPa SSE 2mph /  3.2km/h 2mph /  3.2km/h 90% 0.000in /  0mm 0.00 W/m2
04:59 77.0 °F /  25 °C 73.0 °F /  22.8 °C 29.9in /  1012.4hPa SSE 1mph /  1.6km/h 2mph /  3.2km/h 90% 0.000in /  0mm 0.00 W/m2
05:04 77.0 °F /  25 °C 73.0 °F /  22.8 °C 29.9in /  1012.4hPa SSE 4mph /  6.4km/h 4mph /  6.4km/h 90% 0.000in /  0mm 0.00 W/m2
05:09 77.0 °F /  25 °C 73.0 °F /  22.8 °C 29.9in /  1012.4hPa SSE 2mph /  3.2km/h 4mph /  6.4km/h 90% 0.000in /  0mm 0.00 W/m2
05:14 77.0 °F /  25 °C 73.0 °F /  22.8 °C 29.9in /  1012.4hPa SSE 1mph /  1.6km/h 2mph /  3.2km/h 90% 0.000in /  0mm 0.00 W/m2
05:19 77.0 °F /  25 °C 73.0 °F /  22.8 °C 29.9in /  1012.4hPa SSE 2mph /  3.2km/h 2mph /  3.2km/h 90% 0.000in /  0mm 0.00 W/m2
05:24 76.0 °F /  24.4 °C 73.0 °F /  22.8 °C 29.9in /  1012.4hPa SSE 1mph /  1.6km/h 1mph /  1.6km/h 90% 0.000in /  0mm 0.00 W/m2
05:29 76.0 °F /  24.4 °C 73.0 °F /  22.8 °C 29.9in /  1012.4hPa SSE 1mph /  1.6km/h 1mph /  1.6km/h 90% 0.000in /  0mm 0.00 W/m2
05:34 76.0 °F /  24.4 °C 73.0 °F /  22.8 °C 29.9in /  1012.4hPa Calm     90% 0.000in /  0mm 0.00 W/m2
05:39 76.0 °F /  24.4 °C 73.0 °F /  22.8 °C 29.9in /  1012.4hPa Calm     90% 0.000in /  0mm 0.00 W/m2
05:44 76.0 °F /  24.4 °C 73.0 °F /  22.8 °C 29.9in /  1012.4hPa SSE 1mph /  1.6km/h 1mph /  1.6km/h 90% 0.000in /  0mm 0.00 W/m2
05:49 76.0 °F /  24.4 °C 73.0 °F /  22.8 °C 29.9in /  1012.4hPa SSE 1mph /  1.6km/h 1mph /  1.6km/h 90% 0.000in /  0mm 0.00 W/m2
05:54 76.0 °F /  24.4 °C 73.0 °F /  22.8 °C 29.9in /  1012.4hPa Calm     91% 0.000in /  0mm 0.00 W/m2
05:59 76.0 °F /  24.4 °C 73.0 °F /  22.8 °C 29.9in /  1012.4hPa Calm     91% 0.000in /  0mm 0.00 W/m2
06:04 76.0 °F /  24.4 °C 73.0 °F /  22.8 °C 29.9in /  1012.4hPa Calm     91% 0.000in /  0mm 0.00 W/m2
06:09 76.0 °F /  24.4 °C 73.0 °F /  22.8 °C 29.9in /  1012.4hPa Calm     91% 0.000in /  0mm 0.00 W/m2
06:14 76.0 °F /  24.4 °C 73.0 °F /  22.8 °C 29.9in /  1012.4hPa SSE 1mph /  1.6km/h 1mph /  1.6km/h 91% 0.000in /  0mm 0.00 W/m2
06:19 76.0 °F /  24.4 °C 73.0 °F /  22.8 °C 29.9in /  1012.4hPa Calm   1mph /  1.6km/h 91% 0.000in /  0mm 0.00 W/m2
06:24 76.0 °F /  24.4 °C 73.0 °F /  22.8 °C 29.9in /  1012.4hPa SSE 1mph /  1.6km/h 1mph /  1.6km/h 91% 0.000in /  0mm 0.00 W/m2
06:29 76.0 °F /  24.4 °C 73.0 °F /  22.8 °C 29.9in /  1012.4hPa SSE 1mph /  1.6km/h 2mph /  3.2km/h 91% 0.000in /  0mm 0.00 W/m2
06:34 76.0 °F /  24.4 °C 73.0 °F /  22.8 °C 29.9in /  1012.4hPa SSE 1mph /  1.6km/h 2mph /  3.2km/h 91% 0.000in /  0mm 0.00 W/m2
06:39 76.0 °F /  24.4 °C 73.0 °F /  22.8 °C 29.9in /  1012.4hPa SSE 1mph /  1.6km/h 1mph /  1.6km/h 91% 0.000in /  0mm 0.00 W/m2
06:44 76.0 °F /  24.4 °C 73.0 °F /  22.8 °C 29.9in /  1012.4hPa SSE 1mph /  1.6km/h 1mph /  1.6km/h 91% 0.000in /  0mm 0.00 W/m2
06:49 76.0 °F /  24.4 °C 73.0 °F /  22.8 °C 29.9in /  1012.4hPa SSE 1mph /  1.6km/h 1mph /  1.6km/h 91% 0.000in /  0mm 0.00 W/m2
06:54 76.0 °F /  24.4 °C 73.0 °F /  22.8 °C 29.9in /  1012.4hPa SSE 1mph /  1.6km/h 1mph /  1.6km/h 91% 0.000in /  0mm 0.00 W/m2
06:59 76.0 °F /  24.4 °C 73.0 °F /  22.8 °C 29.9in /  1012.4hPa Calm   1mph /  1.6km/h 91% 0.000in /  0mm 0.00 W/m2
07:04 76.0 °F /  24.4 °C 73.0 °F /  22.8 °C 29.9in /  1012.4hPa SSE 1mph /  1.6km/h 1mph /  1.6km/h 91% 0.000in /  0mm 0.00 W/m2
07:09 76.0 °F /  24.4 °C 73.0 °F /  22.8 °C 29.9in /  1012.4hPa SSE 2mph /  3.2km/h 2mph /  3.2km/h 91% 0.000in /  0mm 0.00 W/m2
07:14 76.0 °F /  24.4 °C 73.0 °F /  22.8 °C 29.9in /  1012.4hPa SSE 1mph /  1.6km/h 2mph /  3.2km/h 91% 0.000in /  0mm 0.00 W/m2
07:19 76.0 °F /  24.4 °C 73.0 °F /  22.8 °C 29.9in /  1012.4hPa SSE 2mph /  3.2km/h 2mph /  3.2km/h 91% 0.000in /  0mm 7.00 W/m2
07:24 76.0 °F /  24.4 °C 73.0 °F /  22.8 °C 29.9in /  1012.4hPa SSE 2mph /  3.2km/h 2mph /  3.2km/h 91% 0.000in /  0mm 9.00 W/m2
07:29 76.0 °F /  24.4 °C 73.0 °F /  22.8 °C 29.9in /  1012.4hPa SSE 1mph /  1.6km/h 2mph /  3.2km/h 91% 0.000in /  0mm 14.00 W/m2
07:34 76.0 °F /  24.4 °C 73.0 °F /  22.8 °C 29.9in /  1012.4hPa SSE 2mph /  3.2km/h 2mph /  3.2km/h 91% 0.000in /  0mm 21.00 W/m2
07:39 77.0 °F /  25 °C 74.0 °F /  23.3 °C 29.9in /  1012.4hPa SSE 1mph /  1.6km/h 2mph /  3.2km/h 91% 0.000in /  0mm 30.00 W/m2
07:44 76.0 °F /  24.4 °C 73.0 °F /  22.8 °C 29.9in /  1012.4hPa Calm     91% 0.000in /  0mm 32.00 W/m2
07:49 77.0 °F /  25 °C 74.0 °F /  23.3 °C 29.9in /  1012.4hPa SSE 1mph /  1.6km/h 1mph /  1.6km/h 91% 0.000in /  0mm 21.00 W/m2
07:54 77.0 °F /  25 °C 74.0 °F /  23.3 °C 29.9in /  1012.4hPa Calm   1mph /  1.6km/h 91% 0.000in /  0mm 23.00 W/m2
07:59 77.0 °F /  25 °C 74.0 °F /  23.3 °C 29.9in /  1012.4hPa SSE 1mph /  1.6km/h 1mph /  1.6km/h 91% 0.000in /  0mm 26.00 W/m2
08:04 77.0 °F /  25 °C 74.0 °F /  23.3 °C 29.9in /  1012.4hPa SSE 2mph /  3.2km/h 2mph /  3.2km/h 91% 0.000in /  0mm 28.00 W/m2
08:09 78.0 °F /  25.6 °C 75.0 °F /  23.9 °C 29.9in /  1012.4hPa SSE 4mph /  6.4km/h 5mph /  8km/h 91% 0.000in /  0mm 33.00 W/m2
08:14 78.0 °F /  25.6 °C 75.0 °F /  23.9 °C 29.9in /  1012.4hPa SSE 4mph /  6.4km/h 4mph /  6.4km/h 91% 0.000in /  0mm 62.00 W/m2
08:19 78.0 °F /  25.6 °C 75.0 °F /  23.9 °C 29.9in /  1012.4hPa SSE 4mph /  6.4km/h 5mph /  8km/h 90% 0.000in /  0mm 125.00 W/m2
08:24 79.0 °F /  26.1 °C 76.0 °F /  24.4 °C 29.9in /  1012.4hPa SSE 4mph /  6.4km/h 4mph /  6.4km/h 90% 0.000in /  0mm 214.00 W/m2
08:29 79.0 °F /  26.1 °C 76.0 °F /  24.4 °C 29.9in /  1012.4hPa South 4mph /  6.4km/h 4mph /  6.4km/h 90% 0.000in /  0mm 214.00 W/m2
08:34 79.0 °F /  26.1 °C 76.0 °F /  24.4 °C 29.9in /  1012.4hPa SSE 4mph /  6.4km/h 4mph /  6.4km/h 89% 0.000in /  0mm 204.00 W/m2
08:39 80.0 °F /  26.7 °C 76.0 °F /  24.4 °C 29.9in /  1012.4hPa SSE 4mph /  6.4km/h 4mph /  6.4km/h 88% 0.000in /  0mm 211.00 W/m2
08:44 80.0 °F /  26.7 °C 76.0 °F /  24.4 °C 29.9in /  1012.4hPa SSE 2mph /  3.2km/h 4mph /  6.4km/h 88% 0.000in /  0mm 246.00 W/m2
08:49 80.0 °F /  26.7 °C 76.0 °F /  24.4 °C 29.9in /  1012.4hPa South 4mph /  6.4km/h 4mph /  6.4km/h 87% 0.000in /  0mm 246.00 W/m2
08:54 81.0 °F /  27.2 °C 77.0 °F /  25 °C 29.9in /  1012.4hPa South 3mph /  4.8km/h 3mph /  4.8km/h 87% 0.000in /  0mm 276.00 W/m2
08:59 81.0 °F /  27.2 °C 77.0 °F /  25 °C 30.0in /  1015.8hPa SSW 4mph /  6.4km/h 6mph /  9.7km/h 86% 0.000in /  0mm 320.00 W/m2
09:04 81.0 °F /  27.2 °C 77.0 °F /  25 °C 30.0in /  1015.8hPa SSW 3mph /  4.8km/h 6mph /  9.7km/h 85% 0.000in /  0mm 323.00 W/m2
09:09 82.0 °F /  27.8 °C 77.0 °F /  25 °C 30.0in /  1015.8hPa South 5mph /  8km/h 5mph /  8km/h 86% 0.000in /  0mm 329.00 W/m2
09:14 83.0 °F /  28.3 °C 77.0 °F /  25 °C 29.9in /  1012.4hPa SSE 5mph /  8km/h 5mph /  8km/h 85% 0.000in /  0mm 392.00 W/m2
09:19 83.0 °F /  28.3 °C 77.0 °F /  25 °C 30.0in /  1015.8hPa SW 8mph /  12.9km/h 8mph /  12.9km/h 84% 0.000in /  0mm 425.00 W/m2
09:24 83.0 °F /  28.3 °C 77.0 °F /  25 °C 30.0in /  1015.8hPa SSW 3mph /  4.8km/h 5mph /  8km/h 84% 0.000in /  0mm 380.00 W/m2
09:29 83.0 °F /  28.3 °C 77.0 °F /  25 °C 30.0in /  1015.8hPa SSW 4mph /  6.4km/h 5mph /  8km/h 83% 0.000in /  0mm 461.00 W/m2
09:34 83.0 °F /  28.3 °C 77.0 °F /  25 °C 30.0in /  1015.8hPa SSW 4mph /  6.4km/h 5mph /  8km/h 82% 0.000in /  0mm 271.00 W/m2
09:39 84.0 °F /  28.9 °C 78.0 °F /  25.6 °C 30.0in /  1015.8hPa SW 7mph /  11.3km/h 8mph /  12.9km/h 83% 0.000in /  0mm 188.00 W/m2
09:44 84.0 °F /  28.9 °C 78.0 °F /  25.6 °C 30.0in /  1015.8hPa SSW 4mph /  6.4km/h 8mph /  12.9km/h 82% 0.000in /  0mm 613.00 W/m2
09:49 84.0 °F /  28.9 °C 77.0 °F /  25 °C 30.0in /  1015.8hPa SW 6mph /  9.7km/h 7mph /  11.3km/h 81% 0.000in /  0mm 577.00 W/m2
09:54 84.0 °F /  28.9 °C 78.0 °F /  25.6 °C 30.0in /  1015.8hPa WSW 10mph /  16.1km/h 10mph /  16.1km/h 81% 0.000in /  0mm 577.00 W/m2
09:59 84.0 °F /  28.9 °C 77.0 °F /  25 °C 30.0in /  1015.8hPa SW 6mph /  9.7km/h 8mph /  12.9km/h 80% 0.000in /  0mm 587.00 W/m2
10:04 84.0 °F /  28.9 °C 77.0 °F /  25 °C 30.0in /  1015.8hPa SSW 4mph /  6.4km/h 5mph /  8km/h 80% 0.000in /  0mm 587.00 W/m2
10:09 85.0 °F /  29.4 °C 78.0 °F /  25.6 °C 30.0in /  1015.8hPa South 4mph /  6.4km/h 5mph /  8km/h 79% 0.000in /  0mm 693.00 W/m2
10:14 85.0 °F /  29.4 °C 77.0 °F /  25 °C 30.0in /  1015.8hPa SSW 6mph /  9.7km/h 7mph /  11.3km/h 78% 0.000in /  0mm 265.00 W/m2
10:19 86.0 °F /  30 °C 78.0 °F /  25.6 °C 30.0in /  1015.8hPa SW 6mph /  9.7km/h 7mph /  11.3km/h 79% 0.000in /  0mm 244.00 W/m2
10:24 86.0 °F /  30 °C 78.0 °F /  25.6 °C 30.0in /  1015.8hPa SW 7mph /  11.3km/h 7mph /  11.3km/h 79% 0.000in /  0mm 248.00 W/m2
10:29 85.0 °F /  29.4 °C 77.0 °F /  25 °C 30.0in /  1015.8hPa SW 8mph /  12.9km/h 8mph /  12.9km/h 77% 0.000in /  0mm 768.00 W/m2
10:34 86.0 °F /  30 °C 77.0 °F /  25 °C 30.0in /  1015.8hPa SW 8mph /  12.9km/h 8mph /  12.9km/h 76% 0.000in /  0mm 768.00 W/m2
10:39 86.0 °F /  30 °C 77.0 °F /  25 °C 30.0in /  1015.8hPa SW 7mph /  11.3km/h 7mph /  11.3km/h 75% 0.000in /  0mm 758.00 W/m2
10:44 87.0 °F /  30.6 °C 78.0 °F /  25.6 °C 30.0in /  1015.8hPa South 5mph /  8km/h 7mph /  11.3km/h 75% 0.000in /  0mm 756.00 W/m2
10:49 87.0 °F /  30.6 °C 78.0 °F /  25.6 °C 30.0in /  1015.8hPa South 9mph /  14.5km/h 9mph /  14.5km/h 73% 0.000in /  0mm 737.00 W/m2
10:54 87.0 °F /  30.6 °C 77.0 °F /  25 °C 30.0in /  1015.8hPa South 10mph /  16.1km/h 10mph /  16.1km/h 72% 0.000in /  0mm 798.00 W/m2
10:59 87.0 °F /  30.6 °C 78.0 °F /  25.6 °C 30.0in /  1015.8hPa South 7mph /  11.3km/h 10mph /  16.1km/h 73% 0.000in /  0mm 809.00 W/m2
11:04 88.0 °F /  31.1 °C 78.0 °F /  25.6 °C 30.0in /  1015.8hPa SSW 7mph /  11.3km/h 8mph /  12.9km/h 72% 0.000in /  0mm 889.00 W/m2
11:09 88.0 °F /  31.1 °C 78.0 °F /  25.6 °C 30.0in /  1015.8hPa South 6mph /  9.7km/h 8mph /  12.9km/h 72% 0.000in /  0mm 889.00 W/m2
11:14 88.0 °F /  31.1 °C 77.0 °F /  25 °C 30.0in /  1015.8hPa SW 8mph /  12.9km/h 8mph /  12.9km/h 71% 0.000in /  0mm 645.00 W/m2
11:19 87.0 °F /  30.6 °C 77.0 °F /  25 °C 30.0in /  1015.8hPa SW 5mph /  8km/h 5mph /  8km/h 72% 0.000in /  0mm 779.00 W/m2
11:24 88.0 °F /  31.1 °C 77.0 °F /  25 °C 30.0in /  1015.8hPa SSW 6mph /  9.7km/h 6mph /  9.7km/h 71% 0.000in /  0mm 782.00 W/m2
11:29 88.0 °F /  31.1 °C 77.0 °F /  25 °C 30.0in /  1015.8hPa South 4mph /  6.4km/h 5mph /  8km/h 70% 0.000in /  0mm 814.00 W/m2
11:34 89.0 °F /  31.7 °C 78.0 °F /  25.6 °C 30.0in /  1015.8hPa SSW 8mph /  12.9km/h 8mph /  12.9km/h 71% 0.000in /  0mm 821.00 W/m2
11:39 90.0 °F /  32.2 °C 77.0 °F /  25 °C 30.0in /  1015.8hPa SSE 9mph /  14.5km/h 10mph /  16.1km/h 67% 0.000in /  0mm 930.00 W/m2
11:44 89.0 °F /  31.7 °C 78.0 °F /  25.6 °C 30.0in /  1015.8hPa South 8mph /  12.9km/h 9mph /  14.5km/h 68% 0.000in /  0mm 954.00 W/m2
11:49 90.0 °F /  32.2 °C 78.0 °F /  25.6 °C 30.0in /  1015.8hPa SW 7mph /  11.3km/h 7mph /  11.3km/h 69% 0.000in /  0mm 965.00 W/m2
11:54 90.0 °F /  32.2 °C 77.0 °F /  25 °C 30.0in /  1015.8hPa WSW 9mph /  14.5km/h 9mph /  14.5km/h 68% 0.000in /  0mm 267.00 W/m2
11:59 88.0 °F /  31.1 °C 77.0 °F /  25 °C 30.0in /  1015.8hPa SSW 5mph /  8km/h 7mph /  11.3km/h 71% 0.000in /  0mm 287.00 W/m2
12:04 87.0 °F /  30.6 °C 77.0 °F /  25 °C 30.0in /  1015.8hPa South 3mph /  4.8km/h 7mph /  11.3km/h 72% 0.000in /  0mm 186.00 W/m2
12:09 89.0 °F /  31.7 °C 78.0 °F /  25.6 °C 30.0in /  1015.8hPa SW 5mph /  8km/h 7mph /  11.3km/h 72% 0.000in /  0mm 970.00 W/m2
12:14 89.0 °F /  31.7 °C 78.0 °F /  25.6 °C 30.0in /  1015.8hPa South 4mph /  6.4km/h 7mph /  11.3km/h 70% 0.000in /  0mm 970.00 W/m2
12:19 89.0 °F /  31.7 °C 78.0 °F /  25.6 °C 30.0in /  1015.8hPa SSW 6mph /  9.7km/h 7mph /  11.3km/h 70% 0.000in /  0mm 932.00 W/m2
12:24 89.0 °F /  31.7 °C 78.0 °F /  25.6 °C 30.0in /  1015.8hPa SSW 5mph /  8km/h 7mph /  11.3km/h 69% 0.000in /  0mm 953.00 W/m2
12:29 90.0 °F /  32.2 °C 78.0 °F /  25.6 °C 30.0in /  1015.8hPa South 5mph /  8km/h 6mph /  9.7km/h 69% 0.000in /  0mm 953.00 W/m2
12:34 90.0 °F /  32.2 °C 77.0 °F /  25 °C 30.0in /  1015.8hPa SSW 6mph /  9.7km/h 9mph /  14.5km/h 65% 0.000in /  0mm 912.00 W/m2
12:39 90.0 °F /  32.2 °C 77.0 °F /  25 °C 30.0in /  1015.8hPa South 11mph /  17.7km/h 11mph /  17.7km/h 65% 0.000in /  0mm 912.00 W/m2
12:44 90.0 °F /  32.2 °C 77.0 °F /  25 °C 29.9in /  1012.4hPa South 7mph /  11.3km/h 11mph /  17.7km/h 66% 0.000in /  0mm 951.00 W/m2
12:49 91.0 °F /  32.8 °C 77.0 °F /  25 °C 29.9in /  1012.4hPa South 9mph /  14.5km/h 10mph /  16.1km/h 64% 0.000in /  0mm 923.00 W/m2
12:54 91.0 °F /  32.8 °C 77.0 °F /  25 °C 29.9in /  1012.4hPa SSE 8mph /  12.9km/h 10mph /  16.1km/h 64% 0.000in /  0mm 951.00 W/m2
12:59 91.0 °F /  32.8 °C 78.0 °F /  25.6 °C 29.9in /  1012.4hPa South 5mph /  8km/h 6mph /  9.7km/h 65% 0.000in /  0mm 935.00 W/m2
13:04 92.0 °F /  33.3 °C 78.0 °F /  25.6 °C 29.9in /  1012.4hPa South 5mph /  8km/h 6mph /  9.7km/h 65% 0.000in /  0mm 953.00 W/m2
13:09 92.0 °F /  33.3 °C 78.0 °F /  25.6 °C 29.9in /  1012.4hPa SSW 6mph /  9.7km/h 6mph /  9.7km/h 65% 0.000in /  0mm 990.00 W/m2
13:14 91.0 °F /  32.8 °C 78.0 °F /  25.6 °C 29.9in /  1012.4hPa South 4mph /  6.4km/h 6mph /  9.7km/h 65% 0.000in /  0mm 1005.00 W/m2
13:19 92.0 °F /  33.3 °C 78.0 °F /  25.6 °C 29.9in /  1012.4hPa SSE 10mph /  16.1km/h 10mph /  16.1km/h 65% 0.000in /  0mm 1005.00 W/m2
13:24 92.0 °F /  33.3 °C 77.0 °F /  25 °C 29.9in /  1012.4hPa South 6mph /  9.7km/h 8mph /  12.9km/h 63% 0.000in /  0mm 946.00 W/m2
13:29 92.0 °F /  33.3 °C 77.0 °F /  25 °C 29.9in /  1012.4hPa SSE 8mph /  12.9km/h 8mph /  12.9km/h 62% 0.000in /  0mm 918.00 W/m2
13:34 92.0 °F /  33.3 °C 78.0 °F /  25.6 °C 29.9in /  1012.4hPa South 8mph /  12.9km/h 8mph /  12.9km/h 63% 0.000in /  0mm 918.00 W/m2
13:39 92.0 °F /  33.3 °C 78.0 °F /  25.6 °C 29.9in /  1012.4hPa South 3mph /  4.8km/h 6mph /  9.7km/h 65% 0.000in /  0mm 935.00 W/m2
13:44 92.0 °F /  33.3 °C 78.0 °F /  25.6 °C 29.9in /  1012.4hPa SSW 9mph /  14.5km/h 9mph /  14.5km/h 64% 0.000in /  0mm 935.00 W/m2
13:49 92.0 °F /  33.3 °C 77.0 °F /  25 °C 29.9in /  1012.4hPa WSW 5mph /  8km/h 6mph /  9.7km/h 62% 0.000in /  0mm 896.00 W/m2
13:54 92.0 °F /  33.3 °C 78.0 °F /  25.6 °C 29.9in /  1012.4hPa WSW 5mph /  8km/h 7mph /  11.3km/h 63% 0.000in /  0mm 926.00 W/m2
13:59 93.0 °F /  33.9 °C 78.0 °F /  25.6 °C 29.9in /  1012.4hPa SSE 8mph /  12.9km/h 10mph /  16.1km/h 63% 0.000in /  0mm 933.00 W/m2
14:04 93.0 °F /  33.9 °C 76.0 °F /  24.4 °C 29.9in /  1012.4hPa SSE 7mph /  11.3km/h 8mph /  12.9km/h 59% 0.000in /  0mm 918.00 W/m2
14:09 92.0 °F /  33.3 °C 76.0 °F /  24.4 °C 29.9in /  1012.4hPa SSE 4mph /  6.4km/h 4mph /  6.4km/h 61% 0.000in /  0mm 949.00 W/m2
14:14 93.0 °F /  33.9 °C 77.0 °F /  25 °C 29.9in /  1012.4hPa SSE 4mph /  6.4km/h 7mph /  11.3km/h 61% 0.000in /  0mm 937.00 W/m2
14:19 93.0 °F /  33.9 °C 77.0 °F /  25 °C 29.9in /  1012.4hPa SSW 6mph /  9.7km/h 7mph /  11.3km/h 61% 0.000in /  0mm 904.00 W/m2
14:24 92.0 °F /  33.3 °C 76.0 °F /  24.4 °C 29.9in /  1012.4hPa South 8mph /  12.9km/h 8mph /  12.9km/h 60% 0.000in /  0mm 909.00 W/m2
14:29 93.0 °F /  33.9 °C 77.0 °F /  25 °C 29.9in /  1012.4hPa South 7mph /  11.3km/h 7mph /  11.3km/h 60% 0.000in /  0mm 898.00 W/m2
14:34 93.0 °F /  33.9 °C 76.0 °F /  24.4 °C 29.9in /  1012.4hPa SSW 4mph /  6.4km/h 8mph /  12.9km/h 59% 0.000in /  0mm 895.00 W/m2
14:39 93.0 °F /  33.9 °C 77.0 °F /  25 °C 29.9in /  1012.4hPa SW 2mph /  3.2km/h 4mph /  6.4km/h 60% 0.000in /  0mm 868.00 W/m2
14:44 93.0 °F /  33.9 °C 77.0 °F /  25 °C 29.9in /  1012.4hPa South 7mph /  11.3km/h 7mph /  11.3km/h 60% 0.000in /  0mm 905.00 W/m2
14:49 93.0 °F /  33.9 °C 77.0 °F /  25 °C 29.9in /  1012.4hPa South 6mph /  9.7km/h 7mph /  11.3km/h 60% 0.000in /  0mm 891.00 W/m2
14:54 93.0 °F /  33.9 °C 76.0 °F /  24.4 °C 29.9in /  1012.4hPa South 5mph /  8km/h 5mph /  8km/h 58% 0.000in /  0mm 884.00 W/m2
14:59 94.0 °F /  34.4 °C 77.0 °F /  25 °C 29.9in /  1012.4hPa SSE 7mph /  11.3km/h 7mph /  11.3km/h 58% 0.000in /  0mm 895.00 W/m2
15:04 94.0 °F /  34.4 °C 76.0 °F /  24.4 °C 29.9in /  1012.4hPa SSE 12mph /  19.3km/h 12mph /  19.3km/h 57% 0.000in /  0mm 875.00 W/m2
15:09 94.0 °F /  34.4 °C 76.0 °F /  24.4 °C 29.9in /  1012.4hPa SSE 8mph /  12.9km/h 12mph /  19.3km/h 56% 0.000in /  0mm 868.00 W/m2
15:14 93.0 °F /  33.9 °C 76.0 °F /  24.4 °C 29.9in /  1012.4hPa SSE 9mph /  14.5km/h 10mph /  16.1km/h 57% 0.000in /  0mm 817.00 W/m2
15:19 93.0 °F /  33.9 °C 76.0 °F /  24.4 °C 29.9in /  1012.4hPa SE 9mph /  14.5km/h 9mph /  14.5km/h 57% 0.000in /  0mm 809.00 W/m2
15:24 94.0 °F /  34.4 °C 75.0 °F /  23.9 °C 29.9in /  1012.4hPa SE 7mph /  11.3km/h 7mph /  11.3km/h 55% 0.000in /  0mm 786.00 W/m2
15:29 94.0 °F /  34.4 °C 76.0 °F /  24.4 °C 29.9in /  1012.4hPa SE 10mph /  16.1km/h 10mph /  16.1km/h 56% 0.000in /  0mm 782.00 W/m2
15:34 94.0 °F /  34.4 °C 76.0 °F /  24.4 °C 29.9in /  1012.4hPa SSE 9mph /  14.5km/h 10mph /  16.1km/h 56% 0.000in /  0mm 759.00 W/m2
15:39 94.0 °F /  34.4 °C 76.0 °F /  24.4 °C 29.9in /  1012.4hPa SSE 6mph /  9.7km/h 7mph /  11.3km/h 56% 0.000in /  0mm 735.00 W/m2
15:44 95.0 °F /  35 °C 76.0 °F /  24.4 °C 29.9in /  1012.4hPa SSE 9mph /  14.5km/h 9mph /  14.5km/h 56% 0.000in /  0mm 742.00 W/m2
15:49 95.0 °F /  35 °C 76.0 °F /  24.4 °C 29.9in /  1012.4hPa South 5mph /  8km/h 6mph /  9.7km/h 55% 0.000in /  0mm 742.00 W/m2
15:54 95.0 °F /  35 °C 76.0 °F /  24.4 °C 29.9in /  1012.4hPa SSE 9mph /  14.5km/h 9mph /  14.5km/h 55% 0.000in /  0mm 717.00 W/m2
15:59 95.0 °F /  35 °C 75.0 °F /  23.9 °C 29.9in /  1012.4hPa SSE 6mph /  9.7km/h 6mph /  9.7km/h 54% 0.000in /  0mm 673.00 W/m2
16:04 95.0 °F /  35 °C 75.0 °F /  23.9 °C 29.9in /  1012.4hPa SSE 9mph /  14.5km/h 9mph /  14.5km/h 53% 0.000in /  0mm 645.00 W/m2
16:09 95.0 °F /  35 °C 75.0 °F /  23.9 °C 29.9in /  1012.4hPa SSE 9mph /  14.5km/h 9mph /  14.5km/h 54% 0.000in /  0mm 642.00 W/m2
16:14 94.0 °F /  34.4 °C 75.0 °F /  23.9 °C 29.9in /  1012.4hPa SSE 8mph /  12.9km/h 9mph /  14.5km/h 55% 0.000in /  0mm 606.00 W/m2
16:19 94.0 °F /  34.4 °C 75.0 °F /  23.9 °C 29.9in /  1012.4hPa SSE 8mph /  12.9km/h 8mph /  12.9km/h 55% 0.000in /  0mm 578.00 W/m2
16:24 94.0 °F /  34.4 °C 75.0 °F /  23.9 °C 29.9in /  1012.4hPa SE 7mph /  11.3km/h 8mph /  12.9km/h 54% 0.000in /  0mm 568.00 W/m2
16:29 94.0 °F /  34.4 °C 75.0 °F /  23.9 °C 29.9in /  1012.4hPa SE 9mph /  14.5km/h 9mph /  14.5km/h 54% 0.000in /  0mm 554.00 W/m2
16:34 95.0 °F /  35 °C 75.0 °F /  23.9 °C 29.9in /  1012.4hPa SE 12mph /  19.3km/h 12mph /  19.3km/h 54% 0.000in /  0mm 550.00 W/m2
16:39 94.0 °F /  34.4 °C 75.0 °F /  23.9 °C 29.9in /  1012.4hPa SE 10mph /  16.1km/h 12mph /  19.3km/h 54% 0.000in /  0mm 534.00 W/m2
16:44 94.0 °F /  34.4 °C 75.0 °F /  23.9 °C 29.9in /  1012.4hPa SSE 8mph /  12.9km/h 8mph /  12.9km/h 54% 0.000in /  0mm 520.00 W/m2
16:49 94.0 °F /  34.4 °C 74.0 °F /  23.3 °C 29.9in /  1012.4hPa SE 7mph /  11.3km/h 8mph /  12.9km/h 54% 0.000in /  0mm 91.00 W/m2
16:54 93.0 °F /  33.9 °C 74.0 °F /  23.3 °C 29.9in /  1012.4hPa SSE 4mph /  6.4km/h 7mph /  11.3km/h 55% 0.000in /  0mm 123.00 W/m2
16:59 93.0 °F /  33.9 °C 74.0 °F /  23.3 °C 29.9in /  1012.4hPa ESE 7mph /  11.3km/h 7mph /  11.3km/h 54% 0.000in /  0mm 455.00 W/m2
17:04 94.0 °F /  34.4 °C 76.0 °F /  24.4 °C 29.9in /  1012.4hPa ESE 4mph /  6.4km/h 5mph /  8km/h 56% 0.000in /  0mm 450.00 W/m2
17:09 94.0 °F /  34.4 °C 75.0 °F /  23.9 °C 29.9in /  1012.4hPa South 6mph /  9.7km/h 6mph /  9.7km/h 54% 0.000in /  0mm 70.00 W/m2
17:14 93.0 °F /  33.9 °C 74.0 °F /  23.3 °C 29.9in /  1012.4hPa SSE 7mph /  11.3km/h 8mph /  12.9km/h 55% 0.000in /  0mm 397.00 W/m2
17:19 93.0 °F /  33.9 °C 74.0 °F /  23.3 °C 29.9in /  1012.4hPa SSE 6mph /  9.7km/h 8mph /  12.9km/h 55% 0.000in /  0mm 65.00 W/m2
17:24 92.0 °F /  33.3 °C 74.0 °F /  23.3 °C 29.9in /  1012.4hPa SSE 6mph /  9.7km/h 6mph /  9.7km/h 56% 0.000in /  0mm 366.00 W/m2
17:29 93.0 °F /  33.9 °C 74.0 °F /  23.3 °C 29.9in /  1012.4hPa South 5mph /  8km/h 6mph /  9.7km/h 56% 0.000in /  0mm 360.00 W/m2
17:34 93.0 °F /  33.9 °C 75.0 °F /  23.9 °C 29.9in /  1012.4hPa SSE 7mph /  11.3km/h 8mph /  12.9km/h 55% 0.000in /  0mm 339.00 W/m2
17:39 93.0 °F /  33.9 °C 74.0 °F /  23.3 °C 29.9in /  1012.4hPa SSE 7mph /  11.3km/h 7mph /  11.3km/h 54% 0.000in /  0mm 329.00 W/m2
17:44 93.0 °F /  33.9 °C 74.0 °F /  23.3 °C 29.9in /  1012.4hPa SSE 9mph /  14.5km/h 9mph /  14.5km/h 55% 0.000in /  0mm 51.00 W/m2
17:49 92.0 °F /  33.3 °C 73.0 °F /  22.8 °C 29.9in /  1012.4hPa South 6mph /  9.7km/h 9mph /  14.5km/h 56% 0.000in /  0mm 84.00 W/m2
17:54 91.0 °F /  32.8 °C 74.0 °F /  23.3 °C 29.9in /  1012.4hPa SSE 6mph /  9.7km/h 7mph /  11.3km/h 57% 0.000in /  0mm 146.00 W/m2
17:59 91.0 °F /  32.8 °C 74.0 °F /  23.3 °C 29.9in /  1012.4hPa South 5mph /  8km/h 5mph /  8km/h 57% 0.000in /  0mm 213.00 W/m2
18:04 92.0 °F /  33.3 °C 74.0 °F /  23.3 °C 29.9in /  1012.4hPa SSE 6mph /  9.7km/h 7mph /  11.3km/h 57% 0.000in /  0mm 213.00 W/m2
18:09 92.0 °F /  33.3 °C 74.0 °F /  23.3 °C 29.9in /  1012.4hPa SSE 5mph /  8km/h 7mph /  11.3km/h 57% 0.000in /  0mm 200.00 W/m2
18:14 92.0 °F /  33.3 °C 74.0 °F /  23.3 °C 29.9in /  1012.4hPa SSE 6mph /  9.7km/h 6mph /  9.7km/h 57% 0.000in /  0mm 179.00 W/m2
18:19 91.0 °F /  32.8 °C 74.0 °F /  23.3 °C 29.9in /  1012.4hPa SSE 4mph /  6.4km/h 5mph /  8km/h 57% 0.000in /  0mm 149.00 W/m2
18:24 92.0 °F /  33.3 °C 75.0 °F /  23.9 °C 29.9in /  1012.4hPa SE 6mph /  9.7km/h 6mph /  9.7km/h 60% 0.000in /  0mm 142.00 W/m2
18:29 91.0 °F /  32.8 °C 76.0 °F /  24.4 °C 29.9in /  1012.4hPa SE 7mph /  11.3km/h 7mph /  11.3km/h 63% 0.000in /  0mm 123.00 W/m2
18:34 91.0 °F /  32.8 °C 77.0 °F /  25 °C 29.9in /  1012.4hPa SE 7mph /  11.3km/h 7mph /  11.3km/h 65% 0.000in /  0mm 81.00 W/m2
18:39 90.0 °F /  32.2 °C 77.0 °F /  25 °C 29.9in /  1012.4hPa SE 6mph /  9.7km/h 9mph /  14.5km/h 66% 0.000in /  0mm 58.00 W/m2
18:44 90.0 °F /  32.2 °C 77.0 °F /  25 °C 29.9in /  1012.4hPa SE 9mph /  14.5km/h 9mph /  14.5km/h 66% 0.000in /  0mm 49.00 W/m2
18:49 89.0 °F /  31.7 °C 77.0 °F /  25 °C 29.9in /  1012.4hPa SE 8mph /  12.9km/h 9mph /  14.5km/h 67% 0.000in /  0mm 42.00 W/m2
18:54 89.0 °F /  31.7 °C 77.0 °F /  25 °C 29.9in /  1012.4hPa SE 8mph /  12.9km/h 8mph /  12.9km/h 67% 0.000in /  0mm 28.00 W/m2
18:59 89.0 °F /  31.7 °C 77.0 °F /  25 °C 29.9in /  1012.4hPa SE 8mph /  12.9km/h 8mph /  12.9km/h 68% 0.000in /  0mm 18.00 W/m2
19:04 89.0 °F /  31.7 °C 77.0 °F /  25 °C 29.9in /  1012.4hPa SE 8mph /  12.9km/h 8mph /  12.9km/h 68% 0.000in /  0mm 16.00 W/m2
19:09 89.0 °F /  31.7 °C 77.0 °F /  25 °C 29.9in /  1012.4hPa SE 10mph /  16.1km/h 10mph /  16.1km/h 69% 0.000in /  0mm 14.00 W/m2
19:14 88.0 °F /  31.1 °C 77.0 °F /  25 °C 29.9in /  1012.4hPa SE 8mph /  12.9km/h 10mph /  16.1km/h 70% 0.000in /  0mm 9.00 W/m2
19:19 88.0 °F /  31.1 °C 77.0 °F /  25 °C 29.9in /  1012.4hPa SE 7mph /  11.3km/h 9mph /  14.5km/h 70% 0.000in /  0mm 5.00 W/m2
19:24 88.0 °F /  31.1 °C 77.0 °F /  25 °C 29.9in /  1012.4hPa SE 9mph /  14.5km/h 9mph /  14.5km/h 70% 0.000in /  0mm 0.00 W/m2
19:29 87.0 °F /  30.6 °C 77.0 °F /  25 °C 29.9in /  1012.4hPa SE 8mph /  12.9km/h 9mph /  14.5km/h 71% 0.000in /  0mm 0.00 W/m2
19:34 87.0 °F /  30.6 °C 77.0 °F /  25 °C 29.9in /  1012.4hPa SE 7mph /  11.3km/h 9mph /  14.5km/h 71% 0.000in /  0mm 0.00 W/m2
19:39 87.0 °F /  30.6 °C 77.0 °F /  25 °C 29.9in /  1012.4hPa SE 7mph /  11.3km/h 9mph /  14.5km/h 71% 0.000in /  0mm 0.00 W/m2
19:44 87.0 °F /  30.6 °C 77.0 °F /  25 °C 29.9in /  1012.4hPa SE 9mph /  14.5km/h 9mph /  14.5km/h 72% 0.000in /  0mm 0.00 W/m2
19:49 87.0 °F /  30.6 °C 77.0 °F /  25 °C 29.9in /  1012.4hPa SE 8mph /  12.9km/h 9mph /  14.5km/h 72% 0.000in /  0mm 0.00 W/m2
19:54 87.0 °F /  30.6 °C 77.0 °F /  25 °C 29.9in /  1012.4hPa SE 7mph /  11.3km/h 8mph /  12.9km/h 73% 0.000in /  0mm 0.00 W/m2
19:59 87.0 °F /  30.6 °C 77.0 °F /  25 °C 29.9in /  1012.4hPa SE 7mph /  11.3km/h 8mph /  12.9km/h 73% 0.000in /  0mm 0.00 W/m2
20:04 86.0 °F /  30 °C 77.0 °F /  25 °C 29.9in /  1012.4hPa SE 8mph /  12.9km/h 8mph /  12.9km/h 73% 0.000in /  0mm 0.00 W/m2
20:09 86.0 °F /  30 °C 77.0 °F /  25 °C 29.9in /  1012.4hPa SE 8mph /  12.9km/h 10mph /  16.1km/h 73% 0.000in /  0mm 0.00 W/m2
20:14 86.0 °F /  30 °C 77.0 °F /  25 °C 29.9in /  1012.4hPa SE 9mph /  14.5km/h 9mph /  14.5km/h 73% 0.000in /  0mm 0.00 W/m2
20:19 86.0 °F /  30 °C 77.0 °F /  25 °C 29.9in /  1012.4hPa SE 10mph /  16.1km/h 10mph /  16.1km/h 74% 0.000in /  0mm 0.00 W/m2
20:24 86.0 °F /  30 °C 77.0 °F /  25 °C 29.9in /  1012.4hPa SE 6mph /  9.7km/h 7mph /  11.3km/h 74% 0.000in /  0mm 0.00 W/m2
20:29 86.0 °F /  30 °C 77.0 °F /  25 °C 29.9in /  1012.4hPa SE 5mph /  8km/h 5mph /  8km/h 74% 0.000in /  0mm 0.00 W/m2
20:34 86.0 °F /  30 °C 77.0 °F /  25 °C 29.9in /  1012.4hPa SE 4mph /  6.4km/h 6mph /  9.7km/h 75% 0.000in /  0mm 0.00 W/m2
20:39 86.0 °F /  30 °C 77.0 °F /  25 °C 29.9in /  1012.4hPa SE 4mph /  6.4km/h 5mph /  8km/h 75% 0.000in /  0mm 0.00 W/m2
20:44 86.0 °F /  30 °C 77.0 °F /  25 °C 29.9in /  1012.4hPa SE 7mph /  11.3km/h 7mph /  11.3km/h 75% 0.000in /  0mm 0.00 W/m2
20:49 85.0 °F /  29.4 °C 77.0 °F /  25 °C 29.9in /  1012.4hPa SE 7mph /  11.3km/h 7mph /  11.3km/h 75% 0.000in /  0mm 0.00 W/m2
20:54 85.0 °F /  29.4 °C 77.0 °F /  25 °C 29.9in /  1012.4hPa SE 5mph /  8km/h 7mph /  11.3km/h 76% 0.000in /  0mm 0.00 W/m2
20:59 85.0 °F /  29.4 °C 77.0 °F /  25 °C 29.9in /  1012.4hPa SE 8mph /  12.9km/h 8mph /  12.9km/h 76% 0.000in /  0mm 0.00 W/m2
21:04 85.0 °F /  29.4 °C 77.0 °F /  25 °C 29.9in /  1012.4hPa SE 6mph /  9.7km/h 8mph /  12.9km/h 76% 0.000in /  0mm 0.00 W/m2
21:09 85.0 °F /  29.4 °C 77.0 °F /  25 °C 29.9in /  1012.4hPa SSE 7mph /  11.3km/h 7mph /  11.3km/h 76% 0.000in /  0mm 0.00 W/m2
21:14 85.0 °F /  29.4 °C 77.0 °F /  25 °C 29.9in /  1012.4hPa SSE 8mph /  12.9km/h 9mph /  14.5km/h 76% 0.000in /  0mm 0.00 W/m2
21:19 85.0 °F /  29.4 °C 76.0 °F /  24.4 °C 29.9in /  1012.4hPa SSE 5mph /  8km/h 9mph /  14.5km/h 76% 0.000in /  0mm 0.00 W/m2
21:24 85.0 °F /  29.4 °C 76.0 °F /  24.4 °C 29.9in /  1012.4hPa SSE 7mph /  11.3km/h 8mph /  12.9km/h 76% 0.000in /  0mm 0.00 W/m2
21:29 85.0 °F /  29.4 °C 76.0 °F /  24.4 °C 29.9in /  1012.4hPa SE 7mph /  11.3km/h 7mph /  11.3km/h 76% 0.000in /  0mm 0.00 W/m2
21:34 84.0 °F /  28.9 °C 76.0 °F /  24.4 °C 29.9in /  1012.4hPa SSE 4mph /  6.4km/h 4mph /  6.4km/h 76% 0.000in /  0mm 0.00 W/m2
21:39 84.0 °F /  28.9 °C 76.0 °F /  24.4 °C 29.9in /  1012.4hPa SSE 5mph /  8km/h 6mph /  9.7km/h 77% 0.000in /  0mm 0.00 W/m2
21:44 84.0 °F /  28.9 °C 76.0 °F /  24.4 °C 29.9in /  1012.4hPa SSE 4mph /  6.4km/h 4mph /  6.4km/h 77% 0.000in /  0mm 0.00 W/m2
21:49 84.0 °F /  28.9 °C 76.0 °F /  24.4 °C 29.9in /  1012.4hPa SSE 8mph /  12.9km/h 8mph /  12.9km/h 77% 0.000in /  0mm 0.00 W/m2
21:54 84.0 °F /  28.9 °C 76.0 °F /  24.4 °C 29.9in /  1012.4hPa SSE 6mph /  9.7km/h 8mph /  12.9km/h 77% 0.000in /  0mm 0.00 W/m2
21:59 84.0 °F /  28.9 °C 76.0 °F /  24.4 °C 29.9in /  1012.4hPa SSE 7mph /  11.3km/h 8mph /  12.9km/h 77% 0.000in /  0mm 0.00 W/m2
22:04 84.0 °F /  28.9 °C 76.0 °F /  24.4 °C 29.9in /  1012.4hPa SSE 4mph /  6.4km/h 8mph /  12.9km/h 77% 0.000in /  0mm 0.00 W/m2
22:09 84.0 °F /  28.9 °C 76.0 °F /  24.4 °C 29.9in /  1012.4hPa South 6mph /  9.7km/h 6mph /  9.7km/h 78% 0.000in /  0mm 0.00 W/m2
22:14 84.0 °F /  28.9 °C 76.0 °F /  24.4 °C 29.9in /  1012.4hPa SSE 7mph /  11.3km/h 7mph /  11.3km/h 78% 0.000in /  0mm 0.00 W/m2
22:19 84.0 °F /  28.9 °C 76.0 °F /  24.4 °C 29.9in /  1012.4hPa SSE 9mph /  14.5km/h 9mph /  14.5km/h 78% 0.000in /  0mm 0.00 W/m2
22:24 83.0 °F /  28.3 °C 76.0 °F /  24.4 °C 29.9in /  1012.4hPa SSE 9mph /  14.5km/h 9mph /  14.5km/h 79% 0.000in /  0mm 0.00 W/m2
22:29 83.0 °F /  28.3 °C 76.0 °F /  24.4 °C 29.9in /  1012.4hPa South 7mph /  11.3km/h 9mph /  14.5km/h 79% 0.000in /  0mm 0.00 W/m2
22:34 83.0 °F /  28.3 °C 76.0 °F /  24.4 °C 29.9in /  1012.4hPa SSE 7mph /  11.3km/h 7mph /  11.3km/h 79% 0.000in /  0mm 0.00 W/m2
22:39 83.0 °F /  28.3 °C 76.0 °F /  24.4 °C 30.0in /  1015.8hPa SSE 7mph /  11.3km/h 8mph /  12.9km/h 80% 0.000in /  0mm 0.00 W/m2
22:44 83.0 °F /  28.3 °C 76.0 °F /  24.4 °C 30.0in /  1015.8hPa SSE 6mph /  9.7km/h 7mph /  11.3km/h 80% 0.000in /  0mm 0.00 W/m2
22:49 83.0 °F /  28.3 °C 76.0 °F /  24.4 °C 30.0in /  1015.8hPa SSE 6mph /  9.7km/h 7mph /  11.3km/h 80% 0.000in /  0mm 0.00 W/m2
22:54 83.0 °F /  28.3 °C 76.0 °F /  24.4 °C 30.0in /  1015.8hPa SSE 6mph /  9.7km/h 7mph /  11.3km/h 81% 0.000in /  0mm 0.00 W/m2
22:59 83.0 °F /  28.3 °C 76.0 °F /  24.4 °C 30.0in /  1015.8hPa SSE 7mph /  11.3km/h 7mph /  11.3km/h 81% 0.000in /  0mm 0.00 W/m2
23:04 83.0 °F /  28.3 °C 76.0 °F /  24.4 °C 30.0in /  1015.8hPa South 8mph /  12.9km/h 8mph /  12.9km/h 82% 0.000in /  0mm 0.00 W/m2
23:09 82.0 °F /  27.8 °C 76.0 °F /  24.4 °C 30.0in /  1015.8hPa South 6mph /  9.7km/h 7mph /  11.3km/h 82% 0.000in /  0mm 0.00 W/m2
23:14 82.0 °F /  27.8 °C 76.0 °F /  24.4 °C 30.0in /  1015.8hPa South 8mph /  12.9km/h 8mph /  12.9km/h 82% 0.000in /  0mm 0.00 W/m2
23:19 82.0 °F /  27.8 °C 76.0 °F /  24.4 °C 30.0in /  1015.8hPa SSE 7mph /  11.3km/h 8mph /  12.9km/h 83% 0.000in /  0mm 0.00 W/m2
23:24 82.0 °F /  27.8 °C 76.0 °F /  24.4 °C 30.0in /  1015.8hPa SSE 5mph /  8km/h 6mph /  9.7km/h 83% 0.000in /  0mm 0.00 W/m2
23:29 82.0 °F /  27.8 °C 76.0 °F /  24.4 °C 30.0in /  1015.8hPa SSE 7mph /  11.3km/h 8mph /  12.9km/h 83% 0.000in /  0mm 0.00 W/m2
23:34 82.0 °F /  27.8 °C 76.0 °F /  24.4 °C 30.0in /  1015.8hPa South 6mph /  9.7km/h 7mph /  11.3km/h 83% 0.000in /  0mm 0.00 W/m2
23:39 82.0 °F /  27.8 °C 76.0 °F /  24.4 °C 30.0in /  1015.8hPa South 6mph /  9.7km/h 6mph /  9.7km/h 83% 0.000in /  0mm 0.00 W/m2
23:44 82.0 °F /  27.8 °C 76.0 °F /  24.4 °C 30.0in /  1015.8hPa South 5mph /  8km/h 5mph /  8km/h 83% 0.000in /  0mm 0.00 W/m2
23:49 81.0 °F /  27.2 °C 76.0 °F /  24.4 °C 30.0in /  1015.8hPa South 8mph /  12.9km/h 9mph /  14.5km/h 83% 0.000in /  0mm 0.00 W/m2
23:54 81.0 °F /  27.2 °C 76.0 °F /  24.4 °C 30.0in /  1015.8hPa South 6mph /  9.7km/h 9mph /  14.5km/h 83% 0.000in /  0mm 0.00 W/m2
23:59 81.0 °F /  27.2 °C 76.0 °F /  24.4 °C 30.0in /  1015.8hPa South 5mph /  8km/h 5mph /  8km/h 84% 0.000in /  0mm 0.00 W/m2
Villages of Bridgestone, Spring, TX USA
Compliments of Weather Underground - 4 mb